Time;durP1;ratioP1;P1;durP2;ratioP2;P2;SDS_P1;SDS_P2;PMS_P1;PMS_P2;Temp;Humidity;BMP_temperature;BMP_pressure;BME280_temperature;BME280_humidity;BME280_pressure;Samples;Min_cycle;Max_cycle;Signal;HPM_P1;HPM_P2
2022/05/26 00:01:12;;;;;;;11.05;4.00;;;14.10;99.90;;;;;;5021171;28;20091;-85
2022/05/26 00:03:40;;;;;;;14.20;5.20;;;14.10;99.90;;;;;;5022498;28;20104;-86
2022/05/26 00:06:08;;;;;;;9.65;4.05;;;14.10;99.90;;;;;;5001819;28;20053;-86
2022/05/26 00:08:36;;;;;;;13.63;4.63;;;14.10;99.90;;;;;;5021259;28;20404;-86
2022/05/26 00:11:04;;;;;;;9.82;3.72;;;14.10;99.90;;;;;;5000779;28;20046;-86
2022/05/26 00:13:29;;;;;;;18.40;5.22;;;14.00;99.90;;;;;;5019518;28;20127;-86
2022/05/26 00:15:55;;;;;;;13.82;4.28;;;14.00;99.90;;;;;;5022319;28;20174;-86
2022/05/26 00:18:21;;;;;;;15.32;4.38;;;14.00;99.90;;;;;;5021727;28;20037;-86
2022/05/26 00:20:47;;;;;;;13.25;5.43;;;14.00;99.90;;;;;;5019928;28;20038;-86
2022/05/26 00:23:12;;;;;;;11.10;3.88;;;14.00;99.90;;;;;;5022219;28;20029;-86
2022/05/26 00:25:39;;;;;;;17.05;3.45;;;14.00;99.90;;;;;;5021014;28;20419;-86
2022/05/26 00:28:04;;;;;;;9.48;3.38;;;14.00;99.90;;;;;;5004146;28;20048;-86
2022/05/26 00:30:30;;;;;;;11.80;3.53;;;14.00;99.90;;;;;;5021315;28;20037;-86
2022/05/26 00:32:56;;;;;;;19.73;4.15;;;14.00;99.90;;;;;;5022719;28;20042;-85
2022/05/26 00:35:22;;;;;;;12.93;4.40;;;13.90;99.90;;;;;;5021671;28;20048;-85
2022/05/26 00:37:48;;;;;;;13.93;3.95;;;13.90;99.90;;;;;;5020241;28;20037;-85
2022/05/26 00:40:14;;;;;;;17.48;4.03;;;13.90;99.90;;;;;;5003443;28;20037;-86
2022/05/26 00:42:40;;;;;;;13.68;4.43;;;13.90;99.90;;;;;;5020382;28;20079;-86
2022/05/26 00:45:07;;;;;;;17.55;4.28;;;13.90;99.90;;;;;;5004364;28;20033;-86
2022/05/26 00:47:39;;;;;;;19.55;5.70;;;13.90;99.90;;;;;;5000605;28;20060;-86
2022/05/26 00:50:07;;;;;;;;;;;13.90;99.90;;;;;;5021051;28;20044;-86
2022/05/26 00:52:39;;;;;;;15.35;4.82;;;13.90;99.90;;;;;;5019765;28;20411;-85
2022/05/26 00:55:31;;;;;;;12.38;3.83;;;13.90;99.90;;;;;;5004107;28;20145;-85
2022/05/26 00:58:21;;;;;;;5.43;3.43;;;13.90;99.90;;;;;;5020403;28;20658;-86
2022/05/26 01:00:47;;;;;;;7.07;3.47;;;13.90;99.90;;;;;;5020466;28;20037;-85
2022/05/26 01:03:18;;;;;;;7.63;3.45;;;13.90;99.90;;;;;;5020500;28;20493;-86
2022/05/26 01:05:55;;;;;;;7.03;3.28;;;13.90;99.90;;;;;;5019880;28;20116;-85
2022/05/26 01:08:46;;;;;;;14.15;3.30;;;13.90;99.90;;;;;;5019978;28;20045;-86
2022/05/26 01:11:11;;;;;;;15.68;4.47;;;13.90;99.90;;;;;;4982008;22;20432;-86
2022/05/26 01:13:46;;;;;;;12.07;3.90;;;13.90;99.90;;;;;;4984572;28;20047;-86
2022/05/26 01:16:27;;;;;;;29.00;4.78;;;13.90;99.90;;;;;;4985762;28;20042;-84
2022/05/26 01:19:06;;;;;;;5.55;3.55;;;13.90;99.90;;;;;;4985117;28;20049;-85
2022/05/26 01:21:42;;;;;;;15.45;4.80;;;13.90;99.90;;;;;;4985240;28;20053;-85
2022/05/26 01:24:38;;;;;;;11.05;4.00;;;13.90;99.90;;;;;;4985957;28;20122;-85
2022/05/26 01:27:37;;;;;;;8.48;3.20;;;13.90;99.90;;;;;;4984960;28;20045;-86
2022/05/26 01:30:27;;;;;;;5.97;2.58;;;13.90;99.90;;;;;;4967838;28;20047;-86
2022/05/26 01:33:01;;;;;;;10.95;2.75;;;13.90;99.90;;;;;;4965106;28;20035;-85
2022/05/26 01:35:37;;;;;;;9.40;3.55;;;13.90;99.90;;;;;;4984209;28;20058;-86
2022/05/26 01:38:33;;;;;;;7.90;2.60;;;13.90;99.90;;;;;;4968504;28;20418;-85
2022/05/26 01:41:11;;;;;;;4.35;1.02;;;13.90;99.90;;;;;;4985042;28;20137;-85
2022/05/26 01:44:07;;;;;;;8.57;2.95;;;13.90;99.90;;;;;;4968094;28;20436;-86
2022/05/26 01:46:44;;;;;;;9.38;2.30;;;13.90;99.90;;;;;;4982344;28;20185;-85
2022/05/26 01:49:20;;;;;;;2.03;1.65;;;13.80;99.90;;;;;;4967473;28;20520;-85
2022/05/26 01:52:00;;;;;;;3.15;1.83;;;13.90;99.90;;;;;;4982912;28;20057;-86
2022/05/26 01:54:52;;;;;;;3.75;1.77;;;13.80;99.90;;;;;;4961343;28;20084;-86
2022/05/26 01:57:25;;;;;;;4.43;1.80;;;13.80;99.90;;;;;;4984040;28;20501;-86
2022/05/26 02:00:01;;;;;;;10.63;2.17;;;13.80;99.90;;;;;;4984214;28;20054;-86
2022/05/26 02:02:31;;;;;;;4.25;1.63;;;13.80;99.90;;;;;;4984635;28;20042;-86
2022/05/26 02:05:25;;;;;;;6.70;1.55;;;13.70;99.90;;;;;;4968924;28;20042;-86
2022/05/26 02:08:03;;;;;;;7.28;2.53;;;13.70;99.90;;;;;;4984560;28;20137;-85
2022/05/26 02:10:36;;;;;;;8.35;2.30;;;13.70;99.90;;;;;;4986194;28;20066;-86
2022/05/26 02:13:10;;;;;;;10.05;1.77;;;13.70;99.90;;;;;;4985510;28;20042;-86
2022/05/26 02:15:49;;;;;;;4.22;1.27;;;13.70;99.90;;;;;;4985259;28;20038;-85
2022/05/26 02:18:26;;;;;;;1.48;1.20;;;13.60;99.90;;;;;;4968585;28;20567;-85
2022/05/26 02:20:58;;;;;;;1.58;1.48;;;13.60;99.90;;;;;;4982707;28;20122;-86
2022/05/26 02:23:34;;;;;;;7.47;2.42;;;13.60;99.90;;;;;;4983620;28;20027;-86
2022/05/26 02:26:01;;;;;;;11.90;2.25;;;13.60;99.90;;;;;;4967905;28;20046;-85
2022/05/26 02:28:27;;;;;;;10.00;1.58;;;13.60;99.90;;;;;;4967766;28;20039;-84
2022/05/26 02:30:55;;;;;;;2.25;1.17;;;13.50;99.90;;;;;;4985062;28;20039;-86
2022/05/26 02:33:21;;;;;;;5.00;1.30;;;13.50;99.90;;;;;;4983454;28;20129;-87
2022/05/26 02:35:50;;;;;;;7.20;1.98;;;13.50;99.90;;;;;;4982757;28;20611;-85
2022/05/26 02:38:23;;;;;;;4.38;1.17;;;13.50;99.90;;;;;;4963600;28;20520;-85
2022/05/26 02:40:52;;;;;;;3.88;1.80;;;13.50;99.90;;;;;;4983952;28;20077;-85
2022/05/26 02:43:29;;;;;;;5.78;1.50;;;13.50;99.90;;;;;;4983197;28;20050;-85
2022/05/26 02:46:32;;;;;;;0.63;0.63;;;13.50;99.90;;;;;;4983149;28;20129;-85
2022/05/26 02:49:10;;;;;;;1.75;1.17;;;13.50;99.90;;;;;;4983927;28;20530;-86
2022/05/26 02:52:03;;;;;;;0.88;0.88;;;13.40;99.90;;;;;;4983397;28;20385;-85
2022/05/26 02:54:37;;;;;;;1.90;1.02;;;13.40;99.90;;;;;;4959292;28;20064;-85
2022/05/26 02:57:19;;;;;;;0.80;0.60;;;13.30;99.90;;;;;;4983036;28;20042;-85
2022/05/26 03:00:06;;;;;;;1.27;0.55;;;13.30;99.90;;;;;;4967638;28;20042;-86
2022/05/26 03:02:57;;;;;;;2.25;1.33;;;13.30;99.90;;;;;;4973757;28;20082;-85
2022/05/26 03:05:27;;;;;;;2.65;1.08;;;13.30;99.90;;;;;;4965342;28;20045;-85
2022/05/26 03:07:56;;;;;;;3.92;1.40;;;13.30;99.90;;;;;;4984085;28;20046;-85
2022/05/26 03:10:25;;;;;;;3.55;1.00;;;13.30;99.90;;;;;;4982602;28;20090;-85
2022/05/26 03:12:57;;;;;;;6.13;0.80;;;13.30;99.90;;;;;;4983080;28;20133;-85
2022/05/26 03:15:23;;;;;;;4.40;1.33;;;13.30;99.90;;;;;;4983890;28;20814;-85
2022/05/26 03:17:49;;;;;;;1.38;1.23;;;13.20;99.90;;;;;;4983176;28;20058;-85
2022/05/26 03:20:14;;;;;;;8.57;1.20;;;13.20;99.90;;;;;;4981394;28;20042;-85
2022/05/26 03:22:40;;;;;;;1.33;1.23;;;13.20;99.90;;;;;;4983293;28;20047;-85
2022/05/26 03:25:07;;;;;;;6.40;1.15;;;13.20;99.90;;;;;;4966489;28;20038;-85
2022/05/26 03:27:33;;;;;;;2.38;0.80;;;13.20;99.90;;;;;;4966437;28;20321;-86
2022/05/26 03:29:59;;;;;;;5.40;1.10;;;13.20;99.90;;;;;;4982684;28;20050;-85
2022/05/26 03:32:25;;;;;;;5.22;1.77;;;13.20;99.90;;;;;;4982211;28;20527;-85
2022/05/26 03:43:06;;;;;;;6.38;1.05;;;13.20;99.90;;;;;;4983599;28;20053;-85
2022/05/26 03:45:34;;;;;;;1.30;0.50;;;13.10;99.90;;;;;;4982683;28;20050;-86
2022/05/26 03:48:00;;;;;;;2.72;1.35;;;13.10;99.90;;;;;;4983486;28;20377;-85
2022/05/26 03:50:26;;;;;;;1.42;1.00;;;13.10;99.90;;;;;;4983277;28;20053;-85
2022/05/26 03:52:52;;;;;;;1.17;0.88;;;13.10;99.90;;;;;;4983248;28;20038;-84
2022/05/26 03:55:19;;;;;;;2.05;1.25;;;13.10;99.90;;;;;;4982474;28;20077;-85
2022/05/26 03:57:45;;;;;;;5.80;1.75;;;13.00;99.90;;;;;;4983726;28;20049;-84
2022/05/26 04:00:12;;;;;;;0.60;0.60;;;13.00;99.90;;;;;;4981772;28;20432;-85
2022/05/26 04:02:38;;;;;;;5.95;1.00;;;13.00;99.90;;;;;;4965751;28;20046;-85
2022/05/26 04:05:05;;;;;;;1.92;0.82;;;13.00;99.90;;;;;;4964450;28;20043;-85
2022/05/26 04:07:30;;;;;;;1.70;1.15;;;13.00;99.90;;;;;;4983859;28;20038;-85
2022/05/26 04:09:56;;;;;;;0.30;0.30;;;13.00;99.90;;;;;;4965411;28;20081;-85
2022/05/26 04:12:22;;;;;;;0.50;0.50;;;13.00;99.90;;;;;;4965192;28;20512;-85
2022/05/26 04:14:48;;;;;;;1.27;0.68;;;13.00;99.90;;;;;;4982450;28;20074;-85
2022/05/26 04:17:13;;;;;;;1.50;0.95;;;12.90;99.90;;;;;;4982915;28;20042;-85
2022/05/26 04:19:41;;;;;;;4.03;1.38;;;12.90;99.90;;;;;;4982958;28;20567;-85
2022/05/26 04:22:23;;;;;;;2.13;0.98;;;12.90;99.90;;;;;;4982023;28;20084;-85
2022/05/26 04:24:53;;;;;;;3.67;1.00;;;12.90;99.90;;;;;;4983939;28;20084;-85
2022/05/26 04:27:20;;;;;;;3.17;1.27;;;12.90;99.90;;;;;;4965332;28;20100;-85
2022/05/26 04:29:47;;;;;;;2.05;0.80;;;12.90;99.90;;;;;;4983227;28;20121;-86
2022/05/26 04:32:13;;;;;;;1.08;1.05;;;12.90;99.90;;;;;;4965347;28;20420;-85
2022/05/26 04:34:39;;;;;;;1.83;0.93;;;12.90;99.90;;;;;;4966013;28;20041;-86
2022/05/26 04:37:05;;;;;;;2.85;0.70;;;12.90;99.90;;;;;;4981907;28;20046;-86
2022/05/26 04:39:31;;;;;;;4.80;1.33;;;12.90;99.90;;;;;;4982067;28;20432;-87
2022/05/26 04:41:59;;;;;;;1.65;0.77;;;12.90;99.90;;;;;;4982274;28;20069;-86
2022/05/26 04:44:24;;;;;;;0.70;0.70;;;13.00;99.90;;;;;;4982068;28;20121;-86
2022/05/26 04:46:50;;;;;;;5.95;1.48;;;13.00;99.90;;;;;;4959825;28;20423;-86
2022/05/26 04:49:15;;;;;;;1.27;1.05;;;13.00;99.90;;;;;;4965456;28;20440;-85
2022/05/26 04:51:41;;;;;;;1.95;1.27;;;13.00;99.90;;;;;;4968193;28;20582;-86
2022/05/26 04:54:07;;;;;;;5.05;1.65;;;13.00;99.90;;;;;;4969348;28;20507;-85
2022/05/26 04:56:33;;;;;;;0.65;0.65;;;13.00;99.90;;;;;;4969322;28;20046;-86
2022/05/26 04:58:59;;;;;;;2.40;0.90;;;13.00;99.90;;;;;;4985674;28;20085;-86
2022/05/26 05:01:25;;;;;;;1.25;1.15;;;13.00;99.90;;;;;;4985594;28;20452;-86
2022/05/26 05:03:50;;;;;;;2.53;1.00;;;13.10;99.90;;;;;;4986782;28;20677;-85
2022/05/26 05:06:17;;;;;;;3.70;0.73;;;13.10;99.90;;;;;;4985134;28;20050;-85
2022/05/26 05:08:43;;;;;;;3.95;0.90;;;13.10;99.90;;;;;;4985410;28;20046;-86
2022/05/26 05:11:10;;;;;;;2.40;1.52;;;13.10;99.90;;;;;;4984906;28;20062;-85
2022/05/26 05:13:37;;;;;;;2.17;0.75;;;13.20;99.90;;;;;;4984775;28;20120;-86
2022/05/26 05:16:08;;;;;;;1.02;0.55;;;13.20;99.90;;;;;;4986051;28;20480;-86
2022/05/26 05:18:34;;;;;;;1.52;0.95;;;13.20;99.90;;;;;;4985807;28;20741;-85
2022/05/26 05:21:10;;;;;;;1.13;0.75;;;13.30;99.90;;;;;;4984549;28;20046;-86
2022/05/26 05:23:43;;;;;;;1.63;0.98;;;13.30;99.90;;;;;;4967152;28;20041;-86
2022/05/26 05:26:13;;;;;;;0.77;0.77;;;13.30;99.90;;;;;;4984438;28;20078;-86
2022/05/26 05:28:43;;;;;;;1.73;0.82;;;13.30;99.90;;;;;;4984900;28;20436;-87
2022/05/26 05:31:12;;;;;;;0.55;0.55;;;13.40;99.90;;;;;;4985487;28;20134;-86
2022/05/26 05:33:41;;;;;;;2.03;0.98;;;13.40;99.90;;;;;;4986173;28;20456;-85
2022/05/26 05:36:08;;;;;;;1.85;1.10;;;13.50;99.90;;;;;;4984821;28;20541;-87
2022/05/26 05:38:38;;;;;;;0.82;0.82;;;13.50;99.90;;;;;;4969861;28;20046;-87
2022/05/26 05:41:04;;;;;;;2.83;1.13;;;13.50;99.90;;;;;;4985466;28;20057;-88
2022/05/26 05:43:31;;;;;;;4.63;0.88;;;13.50;99.90;;;;;;4986958;28;20066;-87
2022/05/26 05:45:57;;;;;;;1.95;0.55;;;13.60;99.90;;;;;;4986471;28;20049;-88
2022/05/26 05:48:23;;;;;;;3.80;0.82;;;13.60;99.90;;;;;;4985654;28;20042;-88
2022/05/26 05:50:48;;;;;;;0.73;0.63;;;13.60;99.90;;;;;;4983882;28;20057;-87
2022/05/26 05:53:15;;;;;;;1.42;0.60;;;13.60;99.90;;;;;;4984395;28;20042;-87
2022/05/26 05:55:41;;;;;;;2.25;1.27;;;13.60;99.90;;;;;;4985943;28;20062;-86
2022/05/26 05:58:10;;;;;;;0.95;0.93;;;13.70;99.90;;;;;;4968022;28;20043;-87
2022/05/26 06:00:36;;;;;;;1.95;0.60;;;13.70;99.90;;;;;;4984163;28;20054;-86
2022/05/26 06:03:02;;;;;;;0.77;0.50;;;13.80;99.90;;;;;;4967597;28;20121;-88
2022/05/26 06:05:31;;;;;;;0.30;0.30;;;13.80;99.90;;;;;;4967522;28;20046;-87
2022/05/26 06:07:57;;;;;;;3.92;1.00;;;13.80;99.90;;;;;;4968720;28;20042;-88
2022/05/26 06:10:26;;;;;;;1.15;0.75;;;13.90;99.90;;;;;;4983528;28;20061;-86
2022/05/26 06:12:52;;;;;;;7.47;1.33;;;13.90;99.90;;;;;;4984060;28;20108;-87
2022/05/26 06:15:18;;;;;;;6.00;0.77;;;14.00;99.90;;;;;;4984502;28;20046;-87
2022/05/26 06:17:47;;;;;;;0.63;0.57;;;14.00;99.90;;;;;;4968435;28;20049;-89
2022/05/26 06:20:13;;;;;;;2.85;0.35;;;14.00;99.90;;;;;;4967023;28;20053;-88
2022/05/26 06:22:47;;;;;;;0.60;0.60;;;14.00;99.90;;;;;;4985101;28;20061;-89
2022/05/26 06:25:15;;;;;;;1.25;1.10;;;14.00;99.90;;;;;;4966252;28;20050;-88
2022/05/26 06:30:26;;;;;;;1.55;0.88;;;14.00;99.90;;;;;;4978046;28;20061;-90
2022/05/26 06:38:27;;;;;;;0.70;0.47;;;14.20;99.90;;;;;;4984617;28;20038;-89
2022/05/26 06:42:05;;;;;;;2.03;0.82;;;14.20;99.90;;;;;;4984357;28;20046;-91
2022/05/26 06:44:13;;;;;;;4.97;1.15;;;14.20;99.90;;;;;;4978700;28;20042;-91
2022/05/26 06:46:39;;;;;;;4.20;0.82;;;14.20;99.90;;;;;;4953770;28;20043;-89
2022/05/26 06:49:08;;;;;;;0.32;0.32;;;14.20;99.90;;;;;;4966281;28;20045;-89
2022/05/26 06:51:39;;;;;;;4.78;0.50;;;14.30;99.90;;;;;;4969242;28;20089;-90
2022/05/26 06:54:05;;;;;;;0.45;0.45;;;14.20;99.90;;;;;;4982794;28;20038;-89
2022/05/26 06:56:34;;;;;;;0.93;0.85;;;14.20;99.90;;;;;;4976489;28;20073;-90
2022/05/26 06:59:03;;;;;;;3.33;1.25;;;14.30;99.90;;;;;;4959916;28;20049;-91
2022/05/26 07:01:37;;;;;;;3.72;1.20;;;14.30;99.90;;;;;;4974073;28;20052;-89
2022/05/26 07:04:02;;;;;;;4.60;1.88;;;14.40;99.90;;;;;;4981551;28;20031;-89
2022/05/26 07:06:31;;;;;;;3.83;0.57;;;14.40;99.90;;;;;;4967410;28;20049;-89
2022/05/26 07:08:57;;;;;;;0.98;0.55;;;14.40;99.90;;;;;;4984648;28;20408;-90
2022/05/26 07:11:23;;;;;;;0.77;0.50;;;14.40;99.90;;;;;;4952314;28;20105;-90
2022/05/26 07:13:48;;;;;;;2.22;0.80;;;14.50;99.90;;;;;;4985472;28;20105;-89
2022/05/26 07:16:25;;;;;;;0.63;0.50;;;14.50;99.90;;;;;;4984164;28;20054;-90
2022/05/26 07:18:55;;;;;;;0.52;0.52;;;14.50;99.90;;;;;;4967715;28;20181;-91
2022/05/26 07:21:22;;;;;;;1.05;0.95;;;14.60;99.90;;;;;;4981092;28;20077;-87
2022/05/26 07:23:47;;;;;;;14.60;1.38;;;14.60;99.90;;;;;;4980201;28;20042;-88
2022/05/26 07:26:17;;;;;;;2.42;0.95;;;14.60;99.90;;;;;;4959049;28;20092;-88
2022/05/26 07:28:43;;;;;;;2.45;0.70;;;14.70;99.90;;;;;;4977787;28;20047;-89
2022/05/26 07:31:13;;;;;;;0.85;0.68;;;14.70;99.90;;;;;;4980026;28;20047;-92
2022/05/26 07:33:40;;;;;;;2.58;0.80;;;14.80;99.90;;;;;;4977832;28;20039;-94
2022/05/26 07:36:06;;;;;;;1.20;0.70;;;14.80;99.90;;;;;;4979025;28;20038;-91
2022/05/26 07:41:23;;;;;;;0.43;0.43;;;14.70;99.90;;;;;;4964778;28;20050;-89
2022/05/26 07:43:57;;;;;;;1.20;0.75;;;14.70;99.90;;;;;;4948796;28;20047;-91
2022/05/26 07:46:25;;;;;;;0.20;0.20;;;14.80;99.90;;;;;;4932938;28;20221;-91
2022/05/26 07:48:57;;;;;;;2.97;1.17;;;14.80;99.90;;;;;;4948960;28;20089;-91
2022/05/26 07:51:24;;;;;;;0.50;0.50;;;14.90;99.90;;;;;;4947844;28;20035;-90
2022/05/26 07:53:53;;;;;;;2.15;0.88;;;14.90;99.90;;;;;;4949252;28;20150;-91
2022/05/26 07:56:23;;;;;;;0.57;0.57;;;15.00;99.90;;;;;;4966073;28;20151;-91
2022/05/26 07:58:49;;;;;;;1.45;0.82;;;15.00;99.90;;;;;;4976559;28;20042;-91
2022/05/26 08:01:17;;;;;;;0.90;0.30;;;15.00;99.90;;;;;;4948197;28;20051;-92
2022/05/26 08:03:43;;;;;;;3.95;1.10;;;15.00;99.90;;;;;;4961593;28;20123;-90
2022/05/26 08:06:12;;;;;;;0.28;0.28;;;15.00;99.90;;;;;;4961370;28;20142;-92
2022/05/26 08:08:38;;;;;;;0.60;0.60;;;15.00;99.90;;;;;;4957683;28;20134;-91
2022/05/26 08:11:07;;;;;;;0.43;0.43;;;15.00;99.90;;;;;;4965319;28;20062;-89
2022/05/26 08:13:32;;;;;;;1.48;0.20;;;15.00;99.90;;;;;;4966624;28;20039;-92
2022/05/26 08:15:58;;;;;;;0.40;0.40;;;15.00;99.90;;;;;;4984240;28;20369;-89
2022/05/26 08:18:25;;;;;;;1.15;0.65;;;15.00;99.90;;;;;;4981749;28;20088;-85
2022/05/26 08:20:51;;;;;;;3.58;0.82;;;15.00;99.90;;;;;;4980092;28;20668;-86
2022/05/26 08:23:16;;;;;;;0.82;0.30;;;15.10;99.90;;;;;;4974008;28;20051;-85
2022/05/26 08:25:42;;;;;;;0.73;0.38;;;15.10;99.90;;;;;;4965081;28;20042;-85
2022/05/26 08:28:08;;;;;;;1.17;0.68;;;15.10;99.90;;;;;;4980042;28;20042;-84
2022/05/26 08:30:33;;;;;;;0.30;0.30;;;15.20;99.90;;;;;;4969738;28;20046;-85
2022/05/26 08:32:59;;;;;;;0.25;0.25;;;15.20;99.90;;;;;;4986655;28;20050;-85
2022/05/26 08:35:24;;;;;;;1.10;0.60;;;15.20;99.90;;;;;;4984814;28;20074;-85
2022/05/26 08:37:50;;;;;;;0.80;0.50;;;15.30;99.90;;;;;;4986067;28;20538;-85
2022/05/26 08:40:38;;;;;;;2.03;0.85;;;15.30;99.90;;;;;;4980542;28;20081;-86
2022/05/26 08:43:05;;;;;;;3.30;1.00;;;15.40;99.90;;;;;;4973365;28;20039;-85
2022/05/26 08:45:35;;;;;;;0.82;0.35;;;15.40;99.90;;;;;;4966868;28;20058;-86
2022/05/26 08:48:01;;;;;;;0.93;0.75;;;15.50;99.90;;;;;;4982432;28;20065;-84
2022/05/26 08:50:40;;;;;;;6.50;0.50;;;15.60;99.90;;;;;;4970051;28;20042;-86
2022/05/26 08:53:21;;;;;;;0.50;0.45;;;15.60;99.90;;;;;;4979782;28;20050;-86
2022/05/26 08:55:50;;;;;;;1.48;0.95;;;15.60;99.90;;;;;;4977027;28;20047;-85
2022/05/26 08:58:26;;;;;;;0.50;0.50;;;15.60;99.90;;;;;;4977696;28;20039;-85
2022/05/26 09:01:01;;;;;;;1.02;0.60;;;15.60;99.90;;;;;;4985680;28;20042;-85
2022/05/26 09:03:29;;;;;;;1.98;0.38;;;15.60;99.90;;;;;;4981910;28;20050;-78
2022/05/26 09:06:05;;;;;;;0.47;0.47;;;15.60;99.90;;;;;;4983294;28;20054;-83
2022/05/26 09:14:48;;;;;;;2.17;0.63;;;15.60;99.90;;;;;;4948399;28;20065;-88
2022/05/26 09:17:14;;;;;;;0.40;0.30;;;15.70;99.90;;;;;;4931460;28;20050;-78
2022/05/26 09:19:43;;;;;;;2.63;0.45;;;15.70;99.90;;;;;;4972506;28;20112;-89
2022/05/26 09:22:27;;;;;;;0.38;0.32;;;15.70;99.90;;;;;;4985412;28;20456;-78
2022/05/26 09:24:53;;;;;;;0.50;0.50;;;15.70;99.90;;;;;;4987556;28;20489;-84
2022/05/26 09:27:29;;;;;;;0.52;0.50;;;15.70;99.90;;;;;;4985341;28;20444;-80
2022/05/26 09:30:18;;;;;;;0.88;0.88;;;15.80;99.90;;;;;;4980179;28;20046;-85
2022/05/26 09:32:45;;;;;;;0.68;0.40;;;15.80;99.90;;;;;;4975933;28;20031;-90
2022/05/26 09:35:18;;;;;;;1.17;1.08;;;15.80;99.90;;;;;;4974989;28;20392;-81
2022/05/26 09:38:18;;;;;;;0.85;0.77;;;15.90;99.90;;;;;;4974683;28;20113;-85
2022/05/26 09:40:46;;;;;;;0.52;0.52;;;16.00;99.90;;;;;;4974855;28;20051;-82
2022/05/26 09:43:15;;;;;;;2.05;1.15;;;16.10;99.90;;;;;;4973886;28;20129;-81
2022/05/26 09:45:53;;;;;;;0.95;0.77;;;16.20;99.90;;;;;;4978658;28;20377;-80
2022/05/26 09:48:25;;;;;;;1.88;0.63;;;16.30;99.90;;;;;;4974491;28;20047;-78
2022/05/26 09:51:24;;;;;;;2.92;0.85;;;16.30;99.90;;;;;;4972940;28;20046;-80
2022/05/26 09:53:54;;;;;;;1.17;0.60;;;16.20;99.90;;;;;;4980064;28;20767;-81
2022/05/26 09:56:37;;;;;;;1.17;0.82;;;16.20;99.90;;;;;;4964064;28;20120;-78
2022/05/26 09:59:26;;;;;;;1.63;1.48;;;16.20;99.90;;;;;;4980530;28;20089;-79
2022/05/26 10:02:06;;;;;;;3.80;0.93;;;16.20;99.90;;;;;;4971277;28;20482;-78
2022/05/26 10:04:51;;;;;;;1.23;0.82;;;16.20;99.90;;;;;;4973146;28;20039;-94
2022/05/26 10:07:22;;;;;;;0.63;0.63;;;16.20;99.90;;;;;;4968060;28;20093;-88
2022/05/26 10:10:05;;;;;;;1.45;1.20;;;16.20;99.90;;;;;;4973882;28;20133;-93
2022/05/26 10:13:00;;;;;;;3.45;1.42;;;16.20;99.90;;;;;;4967496;28;20074;-90
2022/05/26 10:15:51;;;;;;;1.17;1.13;;;16.20;99.90;;;;;;4969088;28;20054;-89
2022/05/26 10:18:41;;;;;;;2.13;0.98;;;16.20;99.90;;;;;;4967520;28;20084;-86
2022/05/26 10:21:28;;;;;;;4.03;0.93;;;16.10;99.90;;;;;;4982039;28;20489;-83
2022/05/26 10:24:21;;;;;;;1.02;0.85;;;16.20;99.90;;;;;;4983706;28;20041;-85
2022/05/26 10:27:09;;;;;;;3.20;1.13;;;16.20;99.90;;;;;;4975398;28;20038;-79
2022/05/26 10:30:15;;;;;;;4.28;1.42;;;16.20;99.90;;;;;;4974123;28;20820;-81
2022/05/26 10:33:11;;;;;;;1.30;1.15;;;16.20;99.90;;;;;;4982192;28;20089;-82
2022/05/26 10:35:54;;;;;;;0.75;0.57;;;16.20;99.90;;;;;;4983774;28;20046;-85
2022/05/26 10:38:31;;;;;;;4.88;1.17;;;16.20;99.90;;;;;;4984040;28;20630;-86
2022/05/26 10:41:22;;;;;;;3.47;0.73;;;16.30;99.90;;;;;;4983955;28;20066;-84
2022/05/26 10:44:06;;;;;;;1.27;1.27;;;16.40;99.90;;;;;;4981454;28;20049;-81
2022/05/26 10:46:40;;;;;;;0.88;0.77;;;16.50;99.90;;;;;;4976587;28;20057;-85
2022/05/26 10:49:18;;;;;;;1.65;0.93;;;16.50;99.90;;;;;;4979555;28;20080;-86
2022/05/26 10:52:00;;;;;;;0.40;0.40;;;16.60;99.90;;;;;;4984353;28;20533;-84
2022/05/26 10:54:57;;;;;;;1.52;1.25;;;16.60;99.90;;;;;;4983419;28;20085;-86
2022/05/26 10:57:57;;;;;;;2.45;1.25;;;16.60;99.90;;;;;;4997763;28;20050;-84
2022/05/26 11:00:27;;;;;;;1.85;0.80;;;16.60;99.90;;;;;;4958550;28;20054;-82
2022/05/26 11:03:10;;;;;;;0.95;0.73;;;16.60;99.90;;;;;;4983135;28;20052;-85
2022/05/26 11:05:40;;;;;;;0.90;0.82;;;16.60;99.90;;;;;;4972246;28;20054;-82
2022/05/26 11:08:29;;;;;;;1.55;0.90;;;16.60;99.90;;;;;;4982874;28;20066;-82
2022/05/26 11:11:07;;;;;;;1.67;1.23;;;16.60;99.90;;;;;;4982782;28;20057;-79
2022/05/26 11:13:48;;;;;;;1.20;1.05;;;16.70;99.90;;;;;;4984251;28;20078;-79
2022/05/26 11:19:45;;;;;;;1.45;1.20;;;16.70;99.90;;;;;;4978402;28;20054;-82
2022/05/26 11:22:13;;;;;;;12.93;1.50;;;16.70;99.90;;;;;;4983250;28;20042;-81
2022/05/26 11:24:40;;;;;;;2.38;0.88;;;16.70;99.90;;;;;;4983984;28;20089;-81
2022/05/26 11:27:11;;;;;;;0.63;0.55;;;16.70;99.90;;;;;;4981507;28;20042;-81
2022/05/26 11:29:56;;;;;;;2.60;1.00;;;16.80;99.90;;;;;;4983536;28;20050;-81
2022/05/26 11:38:33;;;;;;;3.03;1.33;;;16.90;99.90;;;;;;4981543;28;20726;-81
2022/05/26 11:40:58;;;;;;;0.85;0.85;;;17.00;99.90;;;;;;4982262;28;20266;-81
2022/05/26 11:43:59;;;;;;;0.65;0.65;;;17.00;99.90;;;;;;4981036;28;20549;-81
2022/05/26 11:46:45;;;;;;;1.02;1.02;;;17.10;99.90;;;;;;4981437;28;20421;-83
2022/05/26 11:49:43;;;;;;;1.95;0.95;;;17.10;99.90;;;;;;4961401;28;20121;-94
2022/05/26 11:52:24;;;;;;;2.17;1.20;;;17.20;99.90;;;;;;4964510;28;20388;-92
2022/05/26 11:54:53;;;;;;;3.60;0.60;;;17.20;99.90;;;;;;4964563;28;20047;-94
2022/05/26 11:57:40;;;;;;;2.63;0.75;;;17.10;99.90;;;;;;4964942;28;20053;-90
2022/05/26 12:00:15;;;;;;;1.70;1.27;;;17.20;99.90;;;;;;4963949;28;20039;-92
2022/05/26 12:02:51;;;;;;;2.13;0.95;;;17.20;99.90;;;;;;4948384;28;20065;-89
2022/05/26 12:05:29;;;;;;;2.10;1.30;;;17.20;99.90;;;;;;4981130;28;20049;-91
2022/05/26 12:08:01;;;;;;;1.10;1.02;;;17.20;99.90;;;;;;4984650;28;20035;-92
2022/05/26 12:10:34;;;;;;;;;;;17.20;99.90;;;;;;4959093;28;20444;-96
2022/05/26 12:13:27;;;;;;;1.35;1.13;;;17.20;99.90;;;;;;4958009;28;19922;-87
2022/05/26 12:16:10;;;;;;;2.42;0.93;;;17.20;99.90;;;;;;4971290;28;20074;-93
2022/05/26 12:18:50;;;;;;;2.10;0.70;;;17.20;99.90;;;;;;4972022;28;20046;-94
2022/05/26 12:21:28;;;;;;;0.70;0.70;;;17.20;99.90;;;;;;4957430;28;20054;-91
2022/05/26 12:24:03;;;;;;;1.50;0.90;;;17.20;99.90;;;;;;4973614;28;20040;-83
2022/05/26 12:26:54;;;;;;;8.35;1.58;;;17.20;99.90;;;;;;4972003;28;20039;-85
2022/05/26 12:29:47;;;;;;;1.77;1.30;;;17.20;99.90;;;;;;4961882;28;20122;-85
2022/05/26 12:32:27;;;;;;;1.13;0.63;;;17.30;99.90;;;;;;4961819;28;20058;-85
2022/05/26 12:35:04;;;;;;;0.73;0.73;;;17.30;99.90;;;;;;4972832;28;20058;-85
2022/05/26 12:37:55;;;;;;;2.35;1.10;;;17.30;99.90;;;;;;4972481;28;20042;-84
2022/05/26 12:40:36;;;;;;;2.35;1.05;;;17.30;99.90;;;;;;4979104;28;20135;-79
2022/05/26 12:43:35;;;;;;;3.67;1.13;;;17.30;99.90;;;;;;4980697;28;20042;-79
2022/05/26 12:46:10;;;;;;;1.65;1.13;;;17.40;99.90;;;;;;4980679;28;20042;-81
2022/05/26 12:48:53;;;;;;;2.22;1.13;;;17.40;99.90;;;;;;4960550;28;20046;-83
2022/05/26 12:51:20;;;;;;;2.00;0.93;;;17.40;99.90;;;;;;4963062;28;20046;-91
2022/05/26 12:53:57;;;;;;;2.92;2.08;;;17.40;99.90;;;;;;4963892;28;20118;-90
2022/05/26 12:56:44;;;;;;;5.32;1.02;;;17.40;99.90;;;;;;4964516;28;20055;-89
2022/05/26 12:59:20;;;;;;;2.20;1.08;;;17.40;99.90;;;;;;4966207;28;20509;-85
2022/05/26 13:01:48;;;;;;;6.32;1.17;;;17.30;99.90;;;;;;4963585;28;20047;-87
2022/05/26 13:04:20;;;;;;;1.00;0.90;;;17.30;99.90;;;;;;4962546;28;20101;-80
2022/05/26 13:06:49;;;;;;;1.67;1.05;;;17.30;99.90;;;;;;4964414;28;20043;-84
2022/05/26 13:09:19;;;;;;;1.25;1.15;;;17.30;99.90;;;;;;4965063;28;20078;-82
2022/05/26 13:11:52;;;;;;;1.95;1.48;;;17.30;99.90;;;;;;4964844;28;20057;-76
2022/05/26 13:14:48;;;;;;;5.00;1.65;;;17.30;99.90;;;;;;4966531;28;20093;-76
2022/05/26 13:17:26;;;;;;;1.10;1.00;;;17.30;99.90;;;;;;4966333;28;20103;-81
2022/05/26 13:19:54;;;;;;;1.13;0.95;;;17.40;99.90;;;;;;4984343;28;20046;-85
2022/05/26 13:22:32;;;;;;;3.10;1.42;;;17.40;99.90;;;;;;4983503;28;20046;-78
2022/05/26 13:25:09;;;;;;;1.27;1.17;;;17.40;99.90;;;;;;4984686;28;20104;-80
2022/05/26 13:27:51;;;;;;;1.30;1.20;;;17.40;99.90;;;;;;4985970;28;20374;-67
2022/05/26 13:33:14;;;;;;;6.18;2.17;;;17.60;99.90;;;;;;4985419;28;20512;-79
2022/05/26 13:35:45;;;;;;;;;;;17.60;99.90;;;;;;4984895;28;20050;-78
2022/05/26 13:38:26;;;;;;;3.78;1.42;;;17.60;99.90;;;;;;4983844;28;19972;-75
2022/05/26 13:40:52;;;;;;;1.17;1.17;;;17.60;99.90;;;;;;4985162;28;20046;-74
2022/05/26 13:43:19;;;;;;;1.90;1.38;;;17.70;99.90;;;;;;4983754;28;20046;-74
2022/05/26 13:45:45;;;;;;;6.90;1.42;;;17.70;99.90;;;;;;4983995;28;20517;-75
2022/05/26 13:48:37;;;;;;;2.78;1.60;;;17.70;99.90;;;;;;4983315;28;20120;-75
2022/05/26 13:51:21;;;;;;;4.10;2.60;;;17.70;99.90;;;;;;4982821;28;20097;-75
2022/05/26 13:53:50;;;;;;;1.25;1.15;;;17.60;99.90;;;;;;4983230;28;20046;-74
2022/05/26 13:56:32;;;;;;;0.98;0.98;;;17.60;99.90;;;;;;4984202;28;20085;-76